sensor_id;sensor_type;location;lat;lon;timestamp;P1;durP1;ratioP1;P2;durP2;ratioP2
21601;SDS011;10963;50.934;4.668;2023-02-01T00:00:59;27.87;;;11.50;;
21601;SDS011;10963;50.934;4.668;2023-02-01T00:03:26;33.67;;;9.83;;
21601;SDS011;10963;50.934;4.668;2023-02-01T00:05:55;26.67;;;9.60;;
21601;SDS011;10963;50.934;4.668;2023-02-01T00:08:22;25.40;;;9.20;;
21601;SDS011;10963;50.934;4.668;2023-02-01T00:10:48;33.47;;;11.00;;
21601;SDS011;10963;50.934;4.668;2023-02-01T00:13:13;26.30;;;9.23;;
21601;SDS011;10963;50.934;4.668;2023-02-01T00:15:39;22.47;;;8.77;;
21601;SDS011;10963;50.934;4.668;2023-02-01T00:18:10;27.30;;;8.97;;
21601;SDS011;10963;50.934;4.668;2023-02-01T00:20:35;25.00;;;7.30;;
21601;SDS011;10963;50.934;4.668;2023-02-01T00:23:01;25.80;;;7.37;;
21601;SDS011;10963;50.934;4.668;2023-02-01T00:25:27;22.07;;;8.20;;
21601;SDS011;10963;50.934;4.668;2023-02-01T00:27:55;19.37;;;6.97;;
21601;SDS011;10963;50.934;4.668;2023-02-01T00:30:23;20.20;;;7.20;;
21601;SDS011;10963;50.934;4.668;2023-02-01T00:32:49;21.13;;;6.83;;
21601;SDS011;10963;50.934;4.668;2023-02-01T00:35:15;21.87;;;7.13;;
21601;SDS011;10963;50.934;4.668;2023-02-01T00:37:40;21.17;;;6.33;;
21601;SDS011;10963;50.934;4.668;2023-02-01T00:40:06;22.50;;;7.23;;
21601;SDS011;10963;50.934;4.668;2023-02-01T00:42:33;23.20;;;7.83;;
21601;SDS011;10963;50.934;4.668;2023-02-01T00:45:00;25.97;;;7.63;;
21601;SDS011;10963;50.934;4.668;2023-02-01T00:47:28;18.33;;;6.83;;
21601;SDS011;10963;50.934;4.668;2023-02-01T00:49:57;20.63;;;7.23;;
21601;SDS011;10963;50.934;4.668;2023-02-01T00:52:23;25.43;;;7.10;;
21601;SDS011;10963;50.934;4.668;2023-02-01T00:54:49;17.97;;;7.17;;
21601;SDS011;10963;50.934;4.668;2023-02-01T00:57:14;21.80;;;7.00;;
21601;SDS011;10963;50.934;4.668;2023-02-01T00:59:40;24.93;;;7.80;;
21601;SDS011;10963;50.934;4.668;2023-02-01T01:02:06;14.43;;;6.93;;
21601;SDS011;10963;50.934;4.668;2023-02-01T01:04:35;17.90;;;7.37;;
21601;SDS011;10963;50.934;4.668;2023-02-01T01:07:03;29.33;;;8.47;;
21601;SDS011;10963;50.934;4.668;2023-02-01T01:09:29;21.50;;;7.10;;
21601;SDS011;10963;50.934;4.668;2023-02-01T01:11:57;23.30;;;6.17;;
21601;SDS011;10963;50.934;4.668;2023-02-01T01:14:27;21.80;;;6.67;;
21601;SDS011;10963;50.934;4.668;2023-02-01T01:16:58;18.53;;;6.53;;
21601;SDS011;10963;50.934;4.668;2023-02-01T01:19:23;14.83;;;6.43;;
21601;SDS011;10963;50.934;4.668;2023-02-01T01:21:51;19.50;;;6.33;;
21601;SDS011;10963;50.934;4.668;2023-02-01T01:24:17;24.80;;;6.30;;
21601;SDS011;10963;50.934;4.668;2023-02-01T01:26:43;25.70;;;6.33;;
21601;SDS011;10963;50.934;4.668;2023-02-01T01:29:08;23.00;;;6.70;;
21601;SDS011;10963;50.934;4.668;2023-02-01T01:31:35;21.27;;;6.00;;
21601;SDS011;10963;50.934;4.668;2023-02-01T01:34:00;16.20;;;4.93;;
21601;SDS011;10963;50.934;4.668;2023-02-01T01:36:26;26.80;;;5.43;;
21601;SDS011;10963;50.934;4.668;2023-02-01T01:38:53;20.03;;;5.20;;
21601;SDS011;10963;50.934;4.668;2023-02-01T01:41:22;19.63;;;5.57;;
21601;SDS011;10963;50.934;4.668;2023-02-01T01:46:24;17.40;;;4.77;;
21601;SDS011;10963;50.934;4.668;2023-02-01T01:48:56;19.20;;;4.60;;
21601;SDS011;10963;50.934;4.668;2023-02-01T01:51:24;19.57;;;4.80;;
21601;SDS011;10963;50.934;4.668;2023-02-01T01:54:01;19.47;;;4.73;;
21601;SDS011;10963;50.934;4.668;2023-02-01T01:56:55;15.00;;;4.83;;
21601;SDS011;10963;50.934;4.668;2023-02-01T01:59:24;17.03;;;5.00;;
21601;SDS011;10963;50.934;4.668;2023-02-01T02:01:52;22.03;;;5.27;;
21601;SDS011;10963;50.934;4.668;2023-02-01T02:04:19;19.53;;;4.13;;
21601;SDS011;10963;50.934;4.668;2023-02-01T02:06:47;22.50;;;4.90;;
21601;SDS011;10963;50.934;4.668;2023-02-01T02:09:20;20.03;;;4.50;;
21601;SDS011;10963;50.934;4.668;2023-02-01T02:11:48;21.10;;;4.37;;
21601;SDS011;10963;50.934;4.668;2023-02-01T02:14:17;11.57;;;4.13;;
21601;SDS011;10963;50.934;4.668;2023-02-01T02:27:38;17.27;;;4.53;;
21601;SDS011;10963;50.934;4.668;2023-02-01T02:36:03;15.93;;;3.73;;
21601;SDS011;10963;50.934;4.668;2023-02-01T02:39:04;18.37;;;4.47;;
21601;SDS011;10963;50.934;4.668;2023-02-01T02:41:33;16.03;;;3.30;;
21601;SDS011;10963;50.934;4.668;2023-02-01T02:47:39;14.80;;;4.37;;
21601;SDS011;10963;50.934;4.668;2023-02-01T02:50:28;15.43;;;3.43;;
21601;SDS011;10963;50.934;4.668;2023-02-01T02:56:12;19.60;;;5.07;;
21601;SDS011;10963;50.934;4.668;2023-02-01T02:58:58;19.37;;;4.40;;
21601;SDS011;10963;50.934;4.668;2023-02-01T03:01:46;17.30;;;3.40;;
21601;SDS011;10963;50.934;4.668;2023-02-01T03:04:35;18.47;;;4.03;;
21601;SDS011;10963;50.934;4.668;2023-02-01T03:07:45;22.93;;;4.63;;
21601;SDS011;10963;50.934;4.668;2023-02-01T03:10:07;22.77;;;5.30;;
21601;SDS011;10963;50.934;4.668;2023-02-01T03:12:45;19.17;;;4.40;;
21601;SDS011;10963;50.934;4.668;2023-02-01T03:18:23;21.67;;;3.90;;
21601;SDS011;10963;50.934;4.668;2023-02-01T03:20:54;14.47;;;3.73;;
21601;SDS011;10963;50.934;4.668;2023-02-01T03:23:24;16.13;;;4.50;;
21601;SDS011;10963;50.934;4.668;2023-02-01T03:25:55;21.73;;;3.97;;
21601;SDS011;10963;50.934;4.668;2023-02-01T03:28:23;18.83;;;4.13;;
21601;SDS011;10963;50.934;4.668;2023-02-01T03:30:52;18.27;;;4.10;;
21601;SDS011;10963;50.934;4.668;2023-02-01T03:33:20;24.17;;;4.80;;
21601;SDS011;10963;50.934;4.668;2023-02-01T03:41:21;19.57;;;4.03;;
21601;SDS011;10963;50.934;4.668;2023-02-01T03:46:31;19.10;;;3.83;;
21601;SDS011;10963;50.934;4.668;2023-02-01T03:49:01;17.00;;;4.47;;
21601;SDS011;10963;50.934;4.668;2023-02-01T03:51:31;16.13;;;4.77;;
21601;SDS011;10963;50.934;4.668;2023-02-01T03:53:58;35.97;;;4.60;;
21601;SDS011;10963;50.934;4.668;2023-02-01T03:56:29;18.77;;;3.93;;
21601;SDS011;10963;50.934;4.668;2023-02-01T03:58:56;18.37;;;4.53;;
21601;SDS011;10963;50.934;4.668;2023-02-01T04:01:25;18.60;;;4.20;;
21601;SDS011;10963;50.934;4.668;2023-02-01T04:03:51;17.83;;;4.20;;
21601;SDS011;10963;50.934;4.668;2023-02-01T04:06:17;19.20;;;4.13;;
21601;SDS011;10963;50.934;4.668;2023-02-01T04:08:45;18.33;;;4.10;;
21601;SDS011;10963;50.934;4.668;2023-02-01T04:11:13;17.60;;;4.00;;
21601;SDS011;10963;50.934;4.668;2023-02-01T04:13:39;20.73;;;4.83;;
21601;SDS011;10963;50.934;4.668;2023-02-01T04:16:05;21.83;;;5.33;;
21601;SDS011;10963;50.934;4.668;2023-02-01T04:18:33;17.77;;;3.97;;
21601;SDS011;10963;50.934;4.668;2023-02-01T04:21:01;22.57;;;4.13;;
21601;SDS011;10963;50.934;4.668;2023-02-01T04:23:28;20.40;;;4.80;;
21601;SDS011;10963;50.934;4.668;2023-02-01T04:26:00;20.70;;;4.10;;
21601;SDS011;10963;50.934;4.668;2023-02-01T04:28:27;24.80;;;4.67;;
21601;SDS011;10963;50.934;4.668;2023-02-01T04:30:56;15.97;;;3.63;;
21601;SDS011;10963;50.934;4.668;2023-02-01T04:33:22;13.63;;;3.87;;
21601;SDS011;10963;50.934;4.668;2023-02-01T04:35:48;13.80;;;3.50;;
21601;SDS011;10963;50.934;4.668;2023-02-01T04:38:16;25.23;;;4.30;;
21601;SDS011;10963;50.934;4.668;2023-02-01T04:40:46;16.90;;;3.93;;
21601;SDS011;10963;50.934;4.668;2023-02-01T04:43:15;25.97;;;4.20;;
21601;SDS011;10963;50.934;4.668;2023-02-01T04:45:46;16.20;;;4.03;;
21601;SDS011;10963;50.934;4.668;2023-02-01T04:48:13;19.03;;;3.83;;
21601;SDS011;10963;50.934;4.668;2023-02-01T04:50:42;18.50;;;4.10;;
21601;SDS011;10963;50.934;4.668;2023-02-01T04:53:13;16.87;;;4.37;;
21601;SDS011;10963;50.934;4.668;2023-02-01T04:55:42;18.37;;;4.13;;
21601;SDS011;10963;50.934;4.668;2023-02-01T04:58:08;20.87;;;4.67;;
21601;SDS011;10963;50.934;4.668;2023-02-01T05:00:35;11.77;;;3.80;;
21601;SDS011;10963;50.934;4.668;2023-02-01T05:03:04;24.43;;;4.23;;
21601;SDS011;10963;50.934;4.668;2023-02-01T05:05:30;26.03;;;4.17;;
21601;SDS011;10963;50.934;4.668;2023-02-01T05:08:01;21.57;;;4.53;;
21601;SDS011;10963;50.934;4.668;2023-02-01T05:10:27;27.27;;;4.70;;
21601;SDS011;10963;50.934;4.668;2023-02-01T05:12:55;22.47;;;4.00;;
21601;SDS011;10963;50.934;4.668;2023-02-01T05:15:42;31.37;;;4.57;;
21601;SDS011;10963;50.934;4.668;2023-02-01T05:18:12;28.53;;;4.97;;
21601;SDS011;10963;50.934;4.668;2023-02-01T05:20:38;23.23;;;4.97;;
21601;SDS011;10963;50.934;4.668;2023-02-01T05:23:04;21.47;;;4.60;;
21601;SDS011;10963;50.934;4.668;2023-02-01T05:25:30;17.80;;;4.50;;
21601;SDS011;10963;50.934;4.668;2023-02-01T05:27:56;20.37;;;4.37;;
21601;SDS011;10963;50.934;4.668;2023-02-01T05:30:24;22.23;;;4.00;;
21601;SDS011;10963;50.934;4.668;2023-02-01T05:32:55;20.03;;;4.03;;
21601;SDS011;10963;50.934;4.668;2023-02-01T05:35:20;17.87;;;4.00;;
21601;SDS011;10963;50.934;4.668;2023-02-01T05:37:46;23.73;;;3.87;;
21601;SDS011;10963;50.934;4.668;2023-02-01T05:40:14;21.93;;;4.00;;
21601;SDS011;10963;50.934;4.668;2023-02-01T05:42:40;22.87;;;4.00;;
21601;SDS011;10963;50.934;4.668;2023-02-01T05:45:06;17.83;;;5.63;;
21601;SDS011;10963;50.934;4.668;2023-02-01T05:47:32;14.53;;;4.20;;
21601;SDS011;10963;50.934;4.668;2023-02-01T05:49:58;27.17;;;5.23;;
21601;SDS011;10963;50.934;4.668;2023-02-01T05:52:24;18.20;;;4.00;;
21601;SDS011;10963;50.934;4.668;2023-02-01T05:54:49;22.00;;;4.10;;
21601;SDS011;10963;50.934;4.668;2023-02-01T05:57:15;34.17;;;5.30;;
21601;SDS011;10963;50.934;4.668;2023-02-01T05:59:41;21.37;;;4.00;;
21601;SDS011;10963;50.934;4.668;2023-02-01T06:02:12;17.90;;;3.33;;
21601;SDS011;10963;50.934;4.668;2023-02-01T06:04:42;20.47;;;3.93;;
21601;SDS011;10963;50.934;4.668;2023-02-01T06:07:08;16.73;;;3.20;;
21601;SDS011;10963;50.934;4.668;2023-02-01T06:09:37;23.57;;;4.07;;
21601;SDS011;10963;50.934;4.668;2023-02-01T06:12:03;21.77;;;4.57;;
21601;SDS011;10963;50.934;4.668;2023-02-01T06:14:29;17.77;;;4.33;;
21601;SDS011;10963;50.934;4.668;2023-02-01T06:16:55;22.27;;;4.57;;
21601;SDS011;10963;50.934;4.668;2023-02-01T06:19:23;25.33;;;4.63;;
21601;SDS011;10963;50.934;4.668;2023-02-01T06:21:51;21.10;;;4.27;;
21601;SDS011;10963;50.934;4.668;2023-02-01T06:24:17;13.17;;;4.40;;
21601;SDS011;10963;50.934;4.668;2023-02-01T06:26:43;22.50;;;4.80;;
21601;SDS011;10963;50.934;4.668;2023-02-01T06:29:12;14.67;;;4.17;;
21601;SDS011;10963;50.934;4.668;2023-02-01T06:31:40;15.67;;;3.90;;
21601;SDS011;10963;50.934;4.668;2023-02-01T06:34:07;20.27;;;4.30;;
21601;SDS011;10963;50.934;4.668;2023-02-01T06:36:38;24.80;;;4.17;;
21601;SDS011;10963;50.934;4.668;2023-02-01T06:39:05;21.40;;;4.20;;
21601;SDS011;10963;50.934;4.668;2023-02-01T06:41:33;23.37;;;4.70;;
21601;SDS011;10963;50.934;4.668;2023-02-01T06:43:59;17.73;;;4.47;;
21601;SDS011;10963;50.934;4.668;2023-02-01T06:46:25;27.17;;;5.07;;
21601;SDS011;10963;50.934;4.668;2023-02-01T06:48:56;22.73;;;4.60;;
21601;SDS011;10963;50.934;4.668;2023-02-01T06:51:26;25.47;;;4.40;;
21601;SDS011;10963;50.934;4.668;2023-02-01T06:53:57;20.77;;;3.90;;
21601;SDS011;10963;50.934;4.668;2023-02-01T06:56:28;22.83;;;4.13;;
21601;SDS011;10963;50.934;4.668;2023-02-01T06:58:56;19.90;;;4.60;;
21601;SDS011;10963;50.934;4.668;2023-02-01T07:01:21;17.40;;;4.30;;
21601;SDS011;10963;50.934;4.668;2023-02-01T07:03:48;25.53;;;3.93;;
21601;SDS011;10963;50.934;4.668;2023-02-01T07:06:15;19.53;;;3.93;;
21601;SDS011;10963;50.934;4.668;2023-02-01T07:08:46;21.57;;;3.77;;
21601;SDS011;10963;50.934;4.668;2023-02-01T07:11:15;18.93;;;5.30;;
21601;SDS011;10963;50.934;4.668;2023-02-01T07:13:41;20.00;;;3.83;;
21601;SDS011;10963;50.934;4.668;2023-02-01T07:16:13;20.20;;;4.17;;
21601;SDS011;10963;50.934;4.668;2023-02-01T07:18:41;16.87;;;4.87;;
21601;SDS011;10963;50.934;4.668;2023-02-01T07:21:10;18.57;;;4.47;;
21601;SDS011;10963;50.934;4.668;2023-02-01T07:23:37;27.23;;;4.47;;
21601;SDS011;10963;50.934;4.668;2023-02-01T07:26:04;27.00;;;4.93;;
21601;SDS011;10963;50.934;4.668;2023-02-01T07:28:33;16.47;;;4.27;;
21601;SDS011;10963;50.934;4.668;2023-02-01T07:31:03;22.47;;;4.93;;
21601;SDS011;10963;50.934;4.668;2023-02-01T07:33:31;20.73;;;4.53;;
21601;SDS011;10963;50.934;4.668;2023-02-01T07:35:57;13.50;;;3.83;;
21601;SDS011;10963;50.934;4.668;2023-02-01T07:38:26;26.80;;;4.53;;
21601;SDS011;10963;50.934;4.668;2023-02-01T07:41:00;18.83;;;4.50;;
21601;SDS011;10963;50.934;4.668;2023-02-01T07:43:30;20.77;;;5.00;;
21601;SDS011;10963;50.934;4.668;2023-02-01T07:45:58;25.33;;;5.47;;
21601;SDS011;10963;50.934;4.668;2023-02-01T07:48:24;22.00;;;4.23;;
21601;SDS011;10963;50.934;4.668;2023-02-01T07:50:59;18.37;;;3.87;;
21601;SDS011;10963;50.934;4.668;2023-02-01T07:53:30;19.30;;;4.07;;
21601;SDS011;10963;50.934;4.668;2023-02-01T07:55:57;14.90;;;4.00;;
21601;SDS011;10963;50.934;4.668;2023-02-01T07:58:27;19.73;;;4.47;;
21601;SDS011;10963;50.934;4.668;2023-02-01T08:00:53;26.33;;;4.30;;
21601;SDS011;10963;50.934;4.668;2023-02-01T08:03:38;20.27;;;4.47;;
21601;SDS011;10963;50.934;4.668;2023-02-01T08:06:04;20.50;;;4.67;;
21601;SDS011;10963;50.934;4.668;2023-02-01T08:08:33;21.07;;;4.70;;
21601;SDS011;10963;50.934;4.668;2023-02-01T08:11:00;17.73;;;4.00;;
21601;SDS011;10963;50.934;4.668;2023-02-01T08:13:27;19.67;;;5.10;;
21601;SDS011;10963;50.934;4.668;2023-02-01T08:16:02;20.33;;;4.50;;
21601;SDS011;10963;50.934;4.668;2023-02-01T08:18:29;20.17;;;4.00;;
21601;SDS011;10963;50.934;4.668;2023-02-01T08:20:55;17.37;;;4.83;;
21601;SDS011;10963;50.934;4.668;2023-02-01T08:23:29;19.43;;;4.23;;
21601;SDS011;10963;50.934;4.668;2023-02-01T08:26:03;26.70;;;5.50;;
21601;SDS011;10963;50.934;4.668;2023-02-01T08:28:41;21.53;;;3.90;;
21601;SDS011;10963;50.934;4.668;2023-02-01T08:31:09;27.30;;;5.30;;
21601;SDS011;10963;50.934;4.668;2023-02-01T08:33:39;20.80;;;3.63;;
21601;SDS011;10963;50.934;4.668;2023-02-01T08:36:06;18.50;;;4.43;;
21601;SDS011;10963;50.934;4.668;2023-02-01T08:38:38;17.67;;;4.20;;
21601;SDS011;10963;50.934;4.668;2023-02-01T08:41:14;17.50;;;3.93;;
21601;SDS011;10963;50.934;4.668;2023-02-01T08:43:44;21.70;;;4.10;;
21601;SDS011;10963;50.934;4.668;2023-02-01T08:46:11;23.60;;;4.80;;
21601;SDS011;10963;50.934;4.668;2023-02-01T08:48:37;19.23;;;4.47;;
21601;SDS011;10963;50.934;4.668;2023-02-01T08:51:03;20.33;;;4.87;;
21601;SDS011;10963;50.934;4.668;2023-02-01T08:53:33;22.23;;;4.63;;
21601;SDS011;10963;50.934;4.668;2023-02-01T08:55:59;15.60;;;3.93;;
21601;SDS011;10963;50.934;4.668;2023-02-01T08:58:28;20.87;;;4.33;;
21601;SDS011;10963;50.934;4.668;2023-02-01T09:00:54;26.07;;;4.20;;
21601;SDS011;10963;50.934;4.668;2023-02-01T09:03:20;18.67;;;4.73;;
21601;SDS011;10963;50.934;4.668;2023-02-01T09:05:51;21.97;;;5.37;;
21601;SDS011;10963;50.934;4.668;2023-02-01T09:08:17;32.33;;;5.07;;
21601;SDS011;10963;50.934;4.668;2023-02-01T09:10:44;18.73;;;4.50;;
21601;SDS011;10963;50.934;4.668;2023-02-01T09:13:15;22.20;;;4.97;;
21601;SDS011;10963;50.934;4.668;2023-02-01T09:15:43;23.67;;;5.27;;
21601;SDS011;10963;50.934;4.668;2023-02-01T09:18:16;14.93;;;3.97;;
21601;SDS011;10963;50.934;4.668;2023-02-01T09:20:46;14.20;;;4.30;;
21601;SDS011;10963;50.934;4.668;2023-02-01T09:23:12;23.33;;;5.07;;
21601;SDS011;10963;50.934;4.668;2023-02-01T09:25:40;26.90;;;5.33;;
21601;SDS011;10963;50.934;4.668;2023-02-01T09:28:11;15.83;;;3.70;;
21601;SDS011;10963;50.934;4.668;2023-02-01T09:30:37;20.33;;;4.97;;
21601;SDS011;10963;50.934;4.668;2023-02-01T09:33:03;19.30;;;4.70;;
21601;SDS011;10963;50.934;4.668;2023-02-01T09:35:29;20.70;;;4.10;;
21601;SDS011;10963;50.934;4.668;2023-02-01T09:37:55;22.03;;;4.57;;
21601;SDS011;10963;50.934;4.668;2023-02-01T09:40:21;21.07;;;3.83;;
21601;SDS011;10963;50.934;4.668;2023-02-01T09:45:26;22.43;;;5.20;;
21601;SDS011;10963;50.934;4.668;2023-02-01T09:48:04;20.50;;;4.40;;
21601;SDS011;10963;50.934;4.668;2023-02-01T09:50:44;17.30;;;4.43;;
21601;SDS011;10963;50.934;4.668;2023-02-01T09:55:51;21.63;;;4.40;;
21601;SDS011;10963;50.934;4.668;2023-02-01T10:01:13;23.97;;;4.30;;
21601;SDS011;10963;50.934;4.668;2023-02-01T10:03:44;13.17;;;3.67;;
21601;SDS011;10963;50.934;4.668;2023-02-01T10:16:56;13.90;;;3.87;;
21601;SDS011;10963;50.934;4.668;2023-02-01T10:22:10;24.57;;;4.57;;
21601;SDS011;10963;50.934;4.668;2023-02-01T10:24:42;17.63;;;4.27;;
21601;SDS011;10963;50.934;4.668;2023-02-01T10:27:29;21.83;;;4.27;;
21601;SDS011;10963;50.934;4.668;2023-02-01T10:30:22;15.07;;;3.43;;
21601;SDS011;10963;50.934;4.668;2023-02-01T10:32:50;15.57;;;3.87;;
21601;SDS011;10963;50.934;4.668;2023-02-01T10:35:30;19.30;;;4.50;;
21601;SDS011;10963;50.934;4.668;2023-02-01T10:38:00;20.93;;;3.23;;
21601;SDS011;10963;50.934;4.668;2023-02-01T10:40:27;16.77;;;4.03;;
21601;SDS011;10963;50.934;4.668;2023-02-01T10:42:54;14.77;;;3.70;;
21601;SDS011;10963;50.934;4.668;2023-02-01T10:45:24;19.10;;;3.93;;
21601;SDS011;10963;50.934;4.668;2023-02-01T10:47:53;18.73;;;4.00;;
21601;SDS011;10963;50.934;4.668;2023-02-01T10:50:33;19.20;;;3.57;;
21601;SDS011;10963;50.934;4.668;2023-02-01T10:55:47;12.97;;;3.37;;
21601;SDS011;10963;50.934;4.668;2023-02-01T10:58:27;20.47;;;4.07;;
21601;SDS011;10963;50.934;4.668;2023-02-01T11:00:57;18.57;;;3.73;;
21601;SDS011;10963;50.934;4.668;2023-02-01T11:03:39;13.43;;;3.50;;
21601;SDS011;10963;50.934;4.668;2023-02-01T11:08:41;14.53;;;3.37;;
21601;SDS011;10963;50.934;4.668;2023-02-01T11:11:10;18.63;;;3.10;;
21601;SDS011;10963;50.934;4.668;2023-02-01T11:13:37;18.63;;;4.37;;
21601;SDS011;10963;50.934;4.668;2023-02-01T11:16:05;13.13;;;3.37;;
21601;SDS011;10963;50.934;4.668;2023-02-01T11:18:33;18.03;;;3.87;;
21601;SDS011;10963;50.934;4.668;2023-02-01T11:21:04;18.43;;;3.33;;
21601;SDS011;10963;50.934;4.668;2023-02-01T11:23:31;21.33;;;3.50;;
21601;SDS011;10963;50.934;4.668;2023-02-01T11:26:00;21.33;;;3.60;;
21601;SDS011;10963;50.934;4.668;2023-02-01T11:28:37;12.40;;;3.13;;
21601;SDS011;10963;50.934;4.668;2023-02-01T11:31:07;20.97;;;3.60;;
21601;SDS011;10963;50.934;4.668;2023-02-01T11:33:37;14.40;;;3.63;;
21601;SDS011;10963;50.934;4.668;2023-02-01T11:36:15;15.97;;;3.87;;
21601;SDS011;10963;50.934;4.668;2023-02-01T11:38:46;12.57;;;3.63;;
21601;SDS011;10963;50.934;4.668;2023-02-01T11:41:22;23.45;;;5.70;;
21601;SDS011;10963;50.934;4.668;2023-02-01T11:43:54;13.13;;;3.50;;
21601;SDS011;10963;50.934;4.668;2023-02-01T11:46:22;21.87;;;3.30;;
21601;SDS011;10963;50.934;4.668;2023-02-01T12:05:06;8.90;;;2.43;;
21601;SDS011;10963;50.934;4.668;2023-02-01T12:07:48;13.77;;;2.87;;
21601;SDS011;10963;50.934;4.668;2023-02-01T12:15:41;13.13;;;3.13;;
21601;SDS011;10963;50.934;4.668;2023-02-01T12:39:43;18.40;;;2.80;;
21601;SDS011;10963;50.934;4.668;2023-02-01T12:42:32;9.47;;;2.43;;
21601;SDS011;10963;50.934;4.668;2023-02-01T12:47:57;15.20;;;2.83;;
21601;SDS011;10963;50.934;4.668;2023-02-01T12:50:36;14.33;;;2.60;;
21601;SDS011;10963;50.934;4.668;2023-02-01T12:53:18;18.27;;;3.60;;
21601;SDS011;10963;50.934;4.668;2023-02-01T12:56:14;9.53;;;2.13;;
21601;SDS011;10963;50.934;4.668;2023-02-01T12:58:56;9.03;;;2.33;;
21601;SDS011;10963;50.934;4.668;2023-02-01T13:01:40;12.77;;;2.77;;
21601;SDS011;10963;50.934;4.668;2023-02-01T13:04:28;11.10;;;2.53;;
21601;SDS011;10963;50.934;4.668;2023-02-01T13:09:50;12.17;;;2.77;;
21601;SDS011;10963;50.934;4.668;2023-02-01T13:12:37;11.00;;;2.07;;
21601;SDS011;10963;50.934;4.668;2023-02-01T13:15:26;13.73;;;2.50;;
21601;SDS011;10963;50.934;4.668;2023-02-01T13:17:54;9.47;;;2.17;;
21601;SDS011;10963;50.934;4.668;2023-02-01T13:20:58;10.77;;;2.80;;
21601;SDS011;10963;50.934;4.668;2023-02-01T13:23:56;7.73;;;2.10;;
21601;SDS011;10963;50.934;4.668;2023-02-01T13:26:16;10.03;;;2.17;;
21601;SDS011;10963;50.934;4.668;2023-02-01T13:42:19;7.60;;;2.10;;
21601;SDS011;10963;50.934;4.668;2023-02-01T13:47:31;15.53;;;2.93;;
21601;SDS011;10963;50.934;4.668;2023-02-01T13:50:02;10.63;;;2.37;;
21601;SDS011;10963;50.934;4.668;2023-02-01T13:52:56;15.97;;;3.23;;
21601;SDS011;10963;50.934;4.668;2023-02-01T13:55:28;15.17;;;2.20;;
21601;SDS011;10963;50.934;4.668;2023-02-01T14:00:44;6.57;;;1.90;;
21601;SDS011;10963;50.934;4.668;2023-02-01T14:03:16;10.17;;;2.63;;
21601;SDS011;10963;50.934;4.668;2023-02-01T14:08:21;7.03;;;2.20;;
21601;SDS011;10963;50.934;4.668;2023-02-01T14:10:56;12.23;;;2.40;;
21601;SDS011;10963;50.934;4.668;2023-02-01T14:13:38;7.80;;;2.07;;
21601;SDS011;10963;50.934;4.668;2023-02-01T14:16:11;9.87;;;2.23;;
21601;SDS011;10963;50.934;4.668;2023-02-01T14:26:45;11.57;;;3.03;;
21601;SDS011;10963;50.934;4.668;2023-02-01T14:31:51;10.53;;;2.43;;
21601;SDS011;10963;50.934;4.668;2023-02-01T14:47:52;13.03;;;2.90;;
21601;SDS011;10963;50.934;4.668;2023-02-01T15:00:59;12.90;;;2.47;;
21601;SDS011;10963;50.934;4.668;2023-02-01T15:17:39;15.57;;;3.30;;
21601;SDS011;10963;50.934;4.668;2023-02-01T15:28:03;8.93;;;2.63;;
21601;SDS011;10963;50.934;4.668;2023-02-01T15:30:35;17.23;;;3.43;;
21601;SDS011;10963;50.934;4.668;2023-02-01T15:35:43;11.13;;;3.00;;
21601;SDS011;10963;50.934;4.668;2023-02-01T15:43:49;9.00;;;2.90;;
21601;SDS011;10963;50.934;4.668;2023-02-01T15:46:47;13.50;;;3.43;;
21601;SDS011;10963;50.934;4.668;2023-02-01T15:51:49;13.10;;;3.43;;
21601;SDS011;10963;50.934;4.668;2023-02-01T15:54:22;9.90;;;2.77;;
21601;SDS011;10963;50.934;4.668;2023-02-01T15:57:18;12.57;;;2.70;;
21601;SDS011;10963;50.934;4.668;2023-02-01T15:59:56;16.77;;;3.53;;
21601;SDS011;10963;50.934;4.668;2023-02-01T16:05:01;13.63;;;3.00;;
21601;SDS011;10963;50.934;4.668;2023-02-01T16:07:29;14.33;;;3.00;;
21601;SDS011;10963;50.934;4.668;2023-02-01T16:09:58;12.10;;;3.40;;
21601;SDS011;10963;50.934;4.668;2023-02-01T16:12:45;13.37;;;3.37;;
21601;SDS011;10963;50.934;4.668;2023-02-01T16:15:22;12.40;;;3.10;;
21601;SDS011;10963;50.934;4.668;2023-02-01T16:17:48;15.13;;;3.50;;
21601;SDS011;10963;50.934;4.668;2023-02-01T16:20:13;10.03;;;2.97;;
21601;SDS011;10963;50.934;4.668;2023-02-01T16:22:40;14.40;;;3.03;;
21601;SDS011;10963;50.934;4.668;2023-02-01T16:25:10;15.50;;;3.10;;
21601;SDS011;10963;50.934;4.668;2023-02-01T16:27:36;11.13;;;3.80;;
21601;SDS011;10963;50.934;4.668;2023-02-01T16:30:06;13.57;;;3.47;;
21601;SDS011;10963;50.934;4.668;2023-02-01T16:32:35;14.40;;;3.47;;
21601;SDS011;10963;50.934;4.668;2023-02-01T16:35:05;18.17;;;4.13;;
21601;SDS011;10963;50.934;4.668;2023-02-01T16:37:47;17.53;;;3.57;;
21601;SDS011;10963;50.934;4.668;2023-02-01T16:40:16;13.53;;;3.80;;
21601;SDS011;10963;50.934;4.668;2023-02-01T16:42:47;16.40;;;3.67;;
21601;SDS011;10963;50.934;4.668;2023-02-01T16:45:15;15.47;;;3.00;;
21601;SDS011;10963;50.934;4.668;2023-02-01T16:47:53;14.10;;;3.00;;
21601;SDS011;10963;50.934;4.668;2023-02-01T16:50:22;16.00;;;3.57;;
21601;SDS011;10963;50.934;4.668;2023-02-01T16:52:50;11.17;;;2.87;;
21601;SDS011;10963;50.934;4.668;2023-02-01T16:55:20;12.93;;;3.00;;
21601;SDS011;10963;50.934;4.668;2023-02-01T16:57:46;13.00;;;3.07;;
21601;SDS011;10963;50.934;4.668;2023-02-01T17:00:12;17.70;;;3.97;;
21601;SDS011;10963;50.934;4.668;2023-02-01T17:02:40;14.47;;;3.33;;
21601;SDS011;10963;50.934;4.668;2023-02-01T17:05:10;17.73;;;3.10;;
21601;SDS011;10963;50.934;4.668;2023-02-01T17:07:37;19.63;;;3.87;;
21601;SDS011;10963;50.934;4.668;2023-02-01T17:10:08;14.07;;;3.20;;
21601;SDS011;10963;50.934;4.668;2023-02-01T17:12:47;18.10;;;3.90;;
21601;SDS011;10963;50.934;4.668;2023-02-01T17:15:13;19.50;;;4.00;;
21601;SDS011;10963;50.934;4.668;2023-02-01T17:17:39;18.67;;;3.43;;
21601;SDS011;10963;50.934;4.668;2023-02-01T17:20:18;23.03;;;2.90;;
21601;SDS011;10963;50.934;4.668;2023-02-01T17:22:49;20.07;;;4.17;;
21601;SDS011;10963;50.934;4.668;2023-02-01T17:25:19;17.30;;;3.33;;
21601;SDS011;10963;50.934;4.668;2023-02-01T17:27:48;16.83;;;3.17;;
21601;SDS011;10963;50.934;4.668;2023-02-01T17:30:14;19.57;;;3.67;;
21601;SDS011;10963;50.934;4.668;2023-02-01T17:32:40;13.57;;;3.40;;
21601;SDS011;10963;50.934;4.668;2023-02-01T17:35:20;13.40;;;3.17;;
21601;SDS011;10963;50.934;4.668;2023-02-01T17:37:48;13.37;;;3.37;;
21601;SDS011;10963;50.934;4.668;2023-02-01T17:40:16;17.03;;;3.60;;
21601;SDS011;10963;50.934;4.668;2023-02-01T17:42:45;16.70;;;4.60;;
21601;SDS011;10963;50.934;4.668;2023-02-01T17:47:48;19.40;;;4.23;;
21601;SDS011;10963;50.934;4.668;2023-02-01T17:50:19;15.33;;;3.53;;
21601;SDS011;10963;50.934;4.668;2023-02-01T17:52:49;16.20;;;3.67;;
21601;SDS011;10963;50.934;4.668;2023-02-01T17:55:18;17.23;;;3.27;;
21601;SDS011;10963;50.934;4.668;2023-02-01T17:57:48;17.87;;;3.67;;
21601;SDS011;10963;50.934;4.668;2023-02-01T18:00:15;16.03;;;3.10;;
21601;SDS011;10963;50.934;4.668;2023-02-01T18:02:44;19.67;;;3.50;;
21601;SDS011;10963;50.934;4.668;2023-02-01T18:05:20;17.83;;;3.77;;
21601;SDS011;10963;50.934;4.668;2023-02-01T18:08:08;17.37;;;3.90;;
21601;SDS011;10963;50.934;4.668;2023-02-01T18:10:35;19.27;;;3.53;;
21601;SDS011;10963;50.934;4.668;2023-02-01T18:13:03;20.23;;;4.50;;
21601;SDS011;10963;50.934;4.668;2023-02-01T18:15:31;17.27;;;3.70;;
21601;SDS011;10963;50.934;4.668;2023-02-01T18:17:59;16.10;;;4.40;;
21601;SDS011;10963;50.934;4.668;2023-02-01T18:20:25;22.03;;;3.93;;
21601;SDS011;10963;50.934;4.668;2023-02-01T18:22:52;16.50;;;4.17;;